Time;durP1;ratioP1;P1;durP2;ratioP2;P2;SDS_P1;SDS_P2;PMS_P1;PMS_P2;Temp;Humidity;BMP_temperature;BMP_pressure;BME280_temperature;BME280_humidity;BME280_pressure;Samples;Min_cycle;Max_cycle;Signal;HPM_P1;HPM_P2
2023/09/10 00:01:27;;;;;;;6.63;6.07;;;24.30;99.90;;;;;;6230304;28;87878;-70
2023/09/10 00:04:29;;;;;;;7.18;6.57;;;24.30;99.90;;;;;;6227589;28;89055;-68
2023/09/10 00:07:30;;;;;;;7.45;6.75;;;24.30;99.90;;;;;;6225383;28;89665;-69
2023/09/10 00:10:32;;;;;;;8.10;7.30;;;24.30;99.90;;;;;;6225481;28;89170;-68
2023/09/10 00:13:35;;;;;;;7.60;6.63;;;24.30;99.90;;;;;;6227621;28;89543;-68
2023/09/10 00:16:38;;;;;;;7.72;7.00;;;24.30;99.90;;;;;;6234508;28;87499;-68
2023/09/10 00:19:40;;;;;;;7.57;6.80;;;24.20;99.90;;;;;;6232471;28;88999;-69
2023/09/10 00:22:43;;;;;;;7.90;7.00;;;24.30;99.90;;;;;;6228241;28;89076;-69
2023/09/10 00:25:45;;;;;;;7.60;6.90;;;24.30;99.90;;;;;;6230059;28;88865;-70
2023/09/10 00:28:49;;;;;;;7.20;6.60;;;24.20;99.90;;;;;;6230030;28;89150;-69
2023/09/10 00:31:53;;;;;;;7.28;6.68;;;24.20;99.90;;;;;;6231621;28;89309;-69
2023/09/10 00:34:55;;;;;;;7.32;6.63;;;24.30;99.90;;;;;;6232911;27;89141;-70
2023/09/10 00:37:57;;;;;;;7.90;7.10;;;24.20;99.90;;;;;;6233255;28;89108;-69
2023/09/10 00:40:59;;;;;;;7.25;6.60;;;24.20;99.90;;;;;;6234279;27;88989;-69
2023/09/10 00:44:01;;;;;;;7.78;6.97;;;24.20;99.90;;;;;;6237319;28;88297;-69
2023/09/10 00:47:05;;;;;;;7.30;6.60;;;24.20;99.90;;;;;;6233264;28;88406;-69
2023/09/10 00:50:09;;;;;;;8.07;7.38;;;24.20;99.90;;;;;;6234784;28;89045;-70
2023/09/10 00:53:12;;;;;;;8.10;7.35;;;24.20;99.90;;;;;;6231390;28;89153;-70
2023/09/10 00:56:14;;;;;;;7.38;6.68;;;24.20;99.90;;;;;;6231771;28;90033;-70
2023/09/10 00:59:16;;;;;;;7.60;6.90;;;24.20;99.90;;;;;;6232222;28;89023;-71
2023/09/10 01:02:20;;;;;;;7.75;7.05;;;24.20;99.90;;;;;;6230200;28;89063;-69
2023/09/10 01:05:22;;;;;;;7.25;6.57;;;24.20;99.90;;;;;;6232172;28;89088;-70
2023/09/10 01:08:25;;;;;;;8.07;7.38;;;24.20;99.90;;;;;;6230169;28;88292;-70
2023/09/10 01:11:42;;;;;;;8.43;7.50;;;24.20;99.90;;;;;;6231491;28;89052;-69
2023/09/10 01:14:53;;;;;;;7.65;6.90;;;24.20;99.90;;;;;;6232460;28;89127;-69
2023/09/10 01:18:03;;;;;;;7.80;7.10;;;24.20;99.90;;;;;;6233266;28;87041;-69
2023/09/10 01:21:26;;;;;;;7.85;7.05;;;24.20;99.90;;;;;;6231409;28;89078;-69
2023/09/10 01:24:42;;;;;;;7.95;7.07;;;24.10;99.90;;;;;;6231889;28;89281;-70
2023/09/10 01:27:44;;;;;;;7.70;6.97;;;24.10;99.90;;;;;;6229377;28;90042;-70
2023/09/10 01:30:46;;;;;;;7.75;6.95;;;24.10;99.90;;;;;;6231967;28;89038;-69
2023/09/10 01:33:52;;;;;;;7.68;6.97;;;24.20;99.90;;;;;;6232455;28;89404;-69
2023/09/10 01:37:00;;;;;;;7.80;6.70;;;24.10;99.90;;;;;;6230621;28;90283;-69
2023/09/10 01:40:09;;;;;;;7.75;6.95;;;24.10;99.90;;;;;;6232265;28;88008;-69
2023/09/10 01:43:11;;;;;;;8.00;7.20;;;24.10;99.90;;;;;;6230629;28;89375;-68
2023/09/10 01:46:15;;;;;;;21.33;9.75;;;24.10;99.90;;;;;;6227840;28;87955;-69
2023/09/10 01:49:18;;;;;;;10.45;7.85;;;24.10;99.90;;;;;;6233304;28;88699;-69
2023/09/10 01:52:20;;;;;;;8.45;7.55;;;24.10;99.90;;;;;;6228924;28;89051;-69
2023/09/10 01:55:23;;;;;;;11.00;7.82;;;24.10;99.90;;;;;;6232245;28;88995;-69
2023/09/10 01:58:25;;;;;;;9.18;7.47;;;24.10;99.90;;;;;;6233939;28;89278;-70
2023/09/10 02:01:27;;;;;;;8.15;7.40;;;24.10;99.90;;;;;;6229086;28;89033;-69
2023/09/10 02:04:29;;;;;;;7.78;7.07;;;24.10;99.90;;;;;;6232611;28;89010;-69
2023/09/10 02:07:31;;;;;;;8.27;7.47;;;24.10;99.90;;;;;;6226887;28;89028;-69
2023/09/10 02:10:35;;;;;;;7.78;7.00;;;24.10;99.90;;;;;;6230335;27;89282;-69
2023/09/10 02:13:37;;;;;;;7.68;6.97;;;24.00;99.90;;;;;;6230499;28;89047;-70
2023/09/10 02:16:39;;;;;;;8.70;7.13;;;24.10;99.90;;;;;;6231438;27;88698;-70
2023/09/10 02:19:41;;;;;;;7.65;6.53;;;24.10;99.90;;;;;;6225978;28;88322;-69
2023/09/10 02:22:43;;;;;;;7.85;7.15;;;24.10;99.90;;;;;;6228270;28;89142;-69
2023/09/10 02:25:46;;;;;;;7.78;7.10;;;24.10;99.90;;;;;;6228060;28;89089;-69
2023/09/10 02:28:48;;;;;;;7.22;6.63;;;24.10;99.90;;;;;;6225464;28;90002;-69
2023/09/10 02:31:50;;;;;;;7.72;7.03;;;24.00;99.90;;;;;;6228551;28;89116;-69
2023/09/10 02:34:52;;;;;;;7.57;6.88;;;24.00;99.90;;;;;;6226373;28;89028;-69
2023/09/10 02:37:54;;;;;;;7.82;7.13;;;24.00;99.90;;;;;;6228163;28;89240;-70
2023/09/10 02:40:57;;;;;;;7.43;6.72;;;24.10;99.90;;;;;;6230651;28;89019;-70
2023/09/10 02:43:59;;;;;;;8.00;7.30;;;24.00;99.90;;;;;;6226492;28;89076;-69
2023/09/10 02:47:01;;;;;;;8.18;7.18;;;24.00;99.90;;;;;;6227449;28;89254;-70
2023/09/10 02:50:04;;;;;;;7.78;7.07;;;24.00;99.90;;;;;;6230398;28;88733;-69
2023/09/10 02:53:06;;;;;;;7.78;7.18;;;24.00;99.90;;;;;;6226590;28;89120;-69
2023/09/10 02:56:10;;;;;;;7.82;7.13;;;24.00;99.90;;;;;;6229625;28;89466;-71
2023/09/10 02:59:20;;;;;;;7.70;6.97;;;24.00;99.90;;;;;;6229827;28;90001;-69
2023/09/10 03:02:22;;;;;;;8.05;7.35;;;24.00;99.90;;;;;;6228430;28;88987;-70
2023/09/10 03:05:25;;;;;;;8.30;7.40;;;24.10;99.90;;;;;;6228789;28;88978;-71
2023/09/10 03:08:26;;;;;;;7.50;6.90;;;24.00;99.90;;;;;;6180162;28;87874;-69
2023/09/10 03:11:31;;;;;;;8.18;7.38;;;24.00;99.90;;;;;;6183477;28;89518;-70
2023/09/10 03:14:33;;;;;;;9.50;7.93;;;24.00;99.90;;;;;;6180683;28;88473;-70
2023/09/10 03:17:35;;;;;;;7.75;6.95;;;24.00;99.90;;;;;;6164945;28;88393;-69
2023/09/10 03:20:38;;;;;;;7.45;6.78;;;24.00;99.90;;;;;;6180914;28;88190;-70
2023/09/10 03:23:40;;;;;;;7.32;6.72;;;24.00;99.90;;;;;;6179142;28;89368;-70
2023/09/10 03:26:43;;;;;;;8.10;7.30;;;24.00;99.90;;;;;;6182911;28;89028;-70
2023/09/10 03:29:46;;;;;;;8.13;7.05;;;24.00;99.90;;;;;;6178790;28;89991;-69
2023/09/10 03:32:51;;;;;;;8.40;7.57;;;24.00;99.90;;;;;;6180650;28;89021;-70
2023/09/10 03:35:52;;;;;;;8.05;7.30;;;24.00;99.90;;;;;;6181189;28;88984;-70
2023/09/10 03:38:54;;;;;;;7.88;7.18;;;24.00;99.90;;;;;;6183802;28;89317;-70
2023/09/10 03:41:58;;;;;;;8.63;7.28;;;24.00;99.90;;;;;;6186752;28;89360;-70
2023/09/10 03:45:00;;;;;;;8.00;7.22;;;23.90;99.90;;;;;;6180100;28;89351;-70
2023/09/10 03:48:02;;;;;;;8.27;7.57;;;24.00;99.90;;;;;;6179155;28;87977;-69
2023/09/10 03:51:04;;;;;;;7.63;6.93;;;23.90;99.90;;;;;;6186116;28;88657;-69
2023/09/10 03:54:07;;;;;;;7.63;6.93;;;23.90;99.90;;;;;;6178472;28;89158;-68
2023/09/10 03:57:10;;;;;;;8.00;7.20;;;23.90;99.90;;;;;;6185027;28;89117;-69
2023/09/10 04:00:13;;;;;;;7.88;7.18;;;23.90;99.90;;;;;;6183626;28;90087;-69
2023/09/10 04:03:15;;;;;;;9.13;7.47;;;23.90;99.90;;;;;;6188081;28;89191;-70
2023/09/10 04:06:36;;;;;;;8.23;7.43;;;23.90;99.90;;;;;;6198825;28;87775;-70
2023/09/10 04:09:38;;;;;;;8.05;7.35;;;23.90;99.90;;;;;;6233749;28;89181;-70
2023/09/10 04:12:42;;;;;;;8.00;7.30;;;23.90;99.90;;;;;;6226589;28;89220;-70
2023/09/10 04:15:44;;;;;;;7.93;7.13;;;23.90;99.90;;;;;;6236543;28;88822;-70
2023/09/10 04:18:46;;;;;;;8.13;7.32;;;23.90;99.90;;;;;;6234045;28;89314;-70
2023/09/10 04:21:48;;;;;;;8.15;7.45;;;23.90;99.80;;;;;;6237702;28;87689;-69
2023/09/10 04:24:50;;;;;;;8.18;7.47;;;23.90;99.60;;;;;;6234514;28;89150;-69
2023/09/10 04:27:54;;;;;;;8.02;7.22;;;23.90;99.50;;;;;;6235133;28;89341;-70
2023/09/10 04:30:56;;;;;;;8.30;7.60;;;23.90;99.30;;;;;;6233312;28;89969;-69
2023/09/10 04:33:58;;;;;;;8.00;7.30;;;23.90;99.30;;;;;;6236126;27;89038;-69
2023/09/10 04:37:01;;;;;;;6.90;6.30;;;23.80;99.30;;;;;;6225721;28;89063;-69
2023/09/10 04:40:05;;;;;;;7.95;7.25;;;23.90;99.30;;;;;;6235713;28;89204;-69
2023/09/10 04:43:09;;;;;;;8.07;7.28;;;23.80;99.20;;;;;;6232509;28;89771;-70
2023/09/10 04:46:11;;;;;;;7.88;7.18;;;23.90;99.20;;;;;;6229672;28;89118;-70
2023/09/10 04:49:13;;;;;;;7.80;7.10;;;23.80;99.10;;;;;;6227725;28;89013;-70
2023/09/10 04:52:16;;;;;;;7.70;6.97;;;23.90;99.10;;;;;;6234038;28;88924;-69
2023/09/10 04:55:18;;;;;;;8.02;7.35;;;23.90;98.80;;;;;;6232484;28;89175;-70
2023/09/10 04:58:21;;;;;;;8.40;7.68;;;23.80;99.00;;;;;;6232822;28;89069;-69
2023/09/10 05:01:23;;;;;;;8.05;7.35;;;23.80;99.30;;;;;;6235002;28;89948;-69
2023/09/10 05:04:25;;;;;;;8.45;7.63;;;23.80;99.00;;;;;;6241182;27;89093;-70
2023/09/10 05:07:27;;;;;;;8.25;7.55;;;23.80;99.20;;;;;;6232369;28;89047;-69
2023/09/10 05:10:30;;;;;;;8.15;7.35;;;23.80;99.30;;;;;;6235168;28;89074;-70
2023/09/10 05:13:33;;;;;;;8.40;7.60;;;23.80;99.00;;;;;;6232567;28;89366;-69
2023/09/10 05:16:35;;;;;;;8.85;7.95;;;23.80;98.80;;;;;;6231415;28;89102;-69
2023/09/10 05:19:37;;;;;;;7.97;7.22;;;23.90;98.90;;;;;;6225970;28;87917;-70
2023/09/10 05:22:39;;;;;;;7.80;7.10;;;23.80;98.60;;;;;;6234729;28;88584;-70
2023/09/10 05:25:41;;;;;;;6.85;6.22;;;23.80;99.00;;;;;;6232500;28;89248;-70
2023/09/10 05:28:45;;;;;;;8.20;7.40;;;23.80;99.10;;;;;;6233661;28;89042;-69
2023/09/10 05:31:47;;;;;;;9.07;8.18;;;23.80;99.10;;;;;;6232997;28;90380;-70
2023/09/10 05:34:48;;;;;;;9.82;8.30;;;23.80;99.10;;;;;;6232587;28;89026;-71
2023/09/10 05:37:51;;;;;;;8.52;7.82;;;23.80;99.30;;;;;;6238479;28;89206;-70
2023/09/10 05:40:53;;;;;;;9.07;8.10;;;23.90;99.50;;;;;;6228702;28;89068;-71
2023/09/10 05:43:56;;;;;;;17.92;8.63;;;23.90;99.60;;;;;;6233188;28;89126;-68
2023/09/10 05:46:59;;;;;;;13.80;9.38;;;23.80;99.90;;;;;;6226796;28;89013;-70
2023/09/10 05:50:01;;;;;;;9.70;8.70;;;23.90;99.90;;;;;;6229979;27;89050;-69
2023/09/10 05:53:04;;;;;;;9.50;8.60;;;23.80;99.90;;;;;;6231365;28;88250;-72
2023/09/10 05:56:06;;;;;;;9.45;8.45;;;23.90;99.90;;;;;;6231920;28;89043;-71
2023/09/10 05:59:09;;;;;;;9.05;8.23;;;23.80;99.90;;;;;;6229534;27;89149;-73
2023/09/10 06:02:11;;;;;;;9.55;8.55;;;23.80;99.90;;;;;;6225667;28;89942;-72
2023/09/10 06:05:13;;;;;;;9.55;8.32;;;23.80;99.90;;;;;;6226438;27;88344;-73
2023/09/10 06:08:15;;;;;;;9.27;8.38;;;23.90;99.90;;;;;;6232806;28;89098;-73
2023/09/10 06:11:17;;;;;;;9.10;8.30;;;23.90;99.90;;;;;;6234090;28;89038;-73
2023/09/10 06:14:20;;;;;;;9.48;8.57;;;23.80;99.90;;;;;;6230636;28;89091;-72
2023/09/10 06:17:22;;;;;;;9.23;8.43;;;23.90;99.90;;;;;;6236746;27;89327;-71
2023/09/10 06:20:24;;;;;;;8.80;8.00;;;23.90;99.90;;;;;;6235744;27;89080;-71
2023/09/10 06:23:26;;;;;;;8.82;8.02;;;23.90;99.90;;;;;;6235785;28;88268;-72
2023/09/10 06:26:29;;;;;;;8.93;8.10;;;23.90;99.90;;;;;;6232213;28;89358;-73
2023/09/10 06:29:32;;;;;;;11.15;8.43;;;23.80;99.90;;;;;;6233485;28;88286;-70
2023/09/10 06:32:34;;;;;;;9.90;8.90;;;23.80;99.90;;;;;;6239266;28;90279;-72
2023/09/10 06:35:36;;;;;;;9.30;8.40;;;23.90;99.90;;;;;;6232754;28;89037;-73
2023/09/10 06:38:40;;;;;;;9.77;8.75;;;23.90;99.90;;;;;;6233178;28;87865;-72
2023/09/10 06:41:42;;;;;;;9.88;8.98;;;23.90;99.90;;;;;;6231982;28;89020;-71
2023/09/10 06:44:45;;;;;;;9.65;8.23;;;23.90;99.90;;;;;;6231260;28;88879;-72
2023/09/10 06:47:47;;;;;;;9.90;8.90;;;23.90;99.90;;;;;;6230965;28;89180;-72
2023/09/10 06:50:49;;;;;;;9.52;8.73;;;23.80;99.90;;;;;;6230856;28;89184;-72
2023/09/10 06:53:51;;;;;;;9.77;8.65;;;23.90;99.90;;;;;;6231819;28;87184;-72
2023/09/10 06:56:53;;;;;;;9.90;9.00;;;23.90;99.90;;;;;;6231170;28;89364;-73
2023/09/10 06:59:57;;;;;;;9.05;8.27;;;23.90;99.90;;;;;;6226539;28;89068;-73
2023/09/10 07:03:01;;;;;;;9.20;8.30;;;23.90;99.90;;;;;;6230798;28;90068;-71
2023/09/10 07:06:04;;;;;;;9.57;8.38;;;23.90;99.90;;;;;;6230752;28;89233;-72
2023/09/10 07:09:06;;;;;;;9.52;8.63;;;23.90;99.90;;;;;;6232765;28;88931;-71
2023/09/10 07:12:08;;;;;;;9.65;8.75;;;23.90;99.90;;;;;;6230609;28;89271;-70
2023/09/10 07:15:12;;;;;;;9.30;8.50;;;23.90;99.90;;;;;;6230662;28;89130;-70
2023/09/10 07:18:14;;;;;;;10.70;9.07;;;23.90;99.90;;;;;;6232114;28;89036;-70
2023/09/10 07:21:16;;;;;;;10.32;9.43;;;23.90;99.90;;;;;;6230374;28;89050;-71
2023/09/10 07:24:18;;;;;;;9.90;9.00;;;23.90;99.90;;;;;;6229976;28;88236;-71
2023/09/10 07:27:20;;;;;;;10.27;9.18;;;23.90;99.90;;;;;;6232652;28;87152;-71
2023/09/10 07:30:23;;;;;;;9.77;8.88;;;23.90;99.90;;;;;;6229370;28;88945;-70
2023/09/10 07:33:25;;;;;;;12.00;10.20;;;23.90;99.90;;;;;;6233129;28;90068;-70
2023/09/10 07:36:27;;;;;;;10.35;9.35;;;23.90;99.90;;;;;;6230356;28;88010;-71
2023/09/10 07:39:30;;;;;;;9.45;8.65;;;23.90;99.90;;;;;;6231217;28;89041;-70
2023/09/10 07:42:32;;;;;;;9.63;8.77;;;23.90;99.90;;;;;;6231156;28;89243;-71
2023/09/10 07:45:36;;;;;;;11.35;9.43;;;23.90;99.90;;;;;;6229433;28;87996;-70
2023/09/10 07:48:38;;;;;;;9.57;8.63;;;23.90;99.90;;;;;;6229797;28;89367;-71
2023/09/10 07:51:40;;;;;;;9.63;8.63;;;23.90;99.90;;;;;;6231549;28;89251;-71
2023/09/10 07:54:42;;;;;;;9.32;8.52;;;24.00;99.90;;;;;;6228664;28;88403;-71
2023/09/10 07:57:44;;;;;;;10.40;9.40;;;24.00;99.90;;;;;;6229537;28;89527;-71
2023/09/10 08:00:47;;;;;;;10.23;9.20;;;24.00;99.90;;;;;;6227458;28;89070;-71
2023/09/10 08:03:49;;;;;;;10.77;9.35;;;24.00;99.90;;;;;;6229476;28;90004;-73
2023/09/10 08:06:51;;;;;;;10.23;9.20;;;24.00;99.90;;;;;;6232021;28;87998;-71
2023/09/10 08:09:53;;;;;;;10.05;9.05;;;24.00;99.90;;;;;;6229931;28;89437;-71
2023/09/10 08:12:55;;;;;;;9.70;8.70;;;24.00;99.90;;;;;;6231232;28;89015;-73
2023/09/10 08:15:58;;;;;;;10.70;9.05;;;24.00;99.90;;;;;;6229023;28;89442;-71
2023/09/10 08:19:00;;;;;;;9.20;8.30;;;24.00;99.90;;;;;;6229641;28;89197;-72
2023/09/10 08:22:02;;;;;;;10.10;8.30;;;24.10;99.90;;;;;;6230791;28;89110;-72
2023/09/10 08:25:08;;;;;;;9.95;8.77;;;24.10;99.90;;;;;;6230881;28;89508;-71
2023/09/10 08:28:10;;;;;;;10.38;8.95;;;24.10;99.90;;;;;;6225923;28;87941;-71
2023/09/10 08:31:13;;;;;;;8.82;7.95;;;24.00;99.90;;;;;;6231461;28;89004;-71
2023/09/10 08:34:15;;;;;;;13.18;10.00;;;24.00;99.90;;;;;;6214025;28;89689;-71
2023/09/10 08:37:17;;;;;;;10.15;9.00;;;24.10;99.90;;;;;;6232252;28;89030;-72
2023/09/10 08:40:19;;;;;;;13.20;9.13;;;24.10;99.90;;;;;;6235855;28;89063;-71
2023/09/10 08:43:31;;;;;;;11.45;8.63;;;24.10;99.90;;;;;;6231962;28;88132;-70
2023/09/10 08:46:37;;;;;;;9.18;8.35;;;24.10;99.90;;;;;;6229271;27;89021;-71
2023/09/10 08:49:42;;;;;;;9.23;8.43;;;24.20;99.90;;;;;;6236419;28;88978;-71
2023/09/10 08:52:48;;;;;;;10.32;9.32;;;24.10;99.90;;;;;;6232871;28;87864;-72
2023/09/10 08:55:50;;;;;;;10.02;9.13;;;24.20;99.90;;;;;;6233465;28;88605;-71
2023/09/10 08:58:54;;;;;;;9.77;8.82;;;24.20;99.90;;;;;;6232541;28;89250;-71
2023/09/10 09:01:58;;;;;;;10.02;9.02;;;24.20;99.90;;;;;;6233251;28;89149;-71
2023/09/10 09:05:00;;;;;;;9.85;8.85;;;24.20;99.90;;;;;;6232933;28;90028;-71
2023/09/10 09:08:11;;;;;;;10.40;9.50;;;24.20;99.90;;;;;;6234063;27;89299;-70
2023/09/10 09:11:14;;;;;;;10.00;9.10;;;24.20;99.90;;;;;;6228466;28;89492;-71
2023/09/10 09:14:18;;;;;;;10.10;9.10;;;24.30;99.90;;;;;;6233292;28;89021;-70
2023/09/10 09:17:22;;;;;;;9.40;8.60;;;24.20;99.90;;;;;;6231399;28;89077;-72
2023/09/10 09:20:25;;;;;;;9.70;8.70;;;24.30;99.90;;;;;;6237216;28;88843;-72
2023/09/10 09:23:30;;;;;;;9.63;8.80;;;24.30;99.90;;;;;;6235432;27;89021;-71
2023/09/10 09:26:34;;;;;;;9.48;8.68;;;24.30;99.90;;;;;;6234030;28;88363;-71
2023/09/10 09:29:36;;;;;;;9.95;8.90;;;24.30;99.90;;;;;;6232568;28;89299;-70
2023/09/10 09:32:39;;;;;;;10.98;9.85;;;24.30;99.90;;;;;;6231697;28;89115;-71
2023/09/10 09:35:41;;;;;;;9.63;8.77;;;24.30;99.90;;;;;;6220998;28;89987;-71
2023/09/10 09:38:46;;;;;;;9.68;8.73;;;24.30;99.90;;;;;;6233557;28;89399;-70
2023/09/10 09:41:51;;;;;;;10.20;9.20;;;24.20;99.90;;;;;;6232014;28;89286;-70
2023/09/10 09:44:54;;;;;;;10.48;9.15;;;24.30;99.90;;;;;;6233226;28;89504;-71
2023/09/10 09:47:58;;;;;;;9.43;8.60;;;24.20;99.90;;;;;;6225313;28;89043;-71
2023/09/10 09:51:00;;;;;;;9.13;8.30;;;24.20;99.90;;;;;;6227959;28;87963;-70
2023/09/10 09:54:02;;;;;;;9.57;8.48;;;24.20;99.90;;;;;;6232345;28;89025;-71
2023/09/10 09:57:05;;;;;;;9.45;8.65;;;24.20;99.90;;;;;;6233611;28;88408;-71
2023/09/10 10:00:09;;;;;;;9.15;8.25;;;24.20;99.90;;;;;;6230728;28;89109;-71
2023/09/10 10:03:13;;;;;;;9.05;8.25;;;24.20;99.90;;;;;;6232955;28;89017;-71
2023/09/10 10:06:17;;;;;;;8.77;7.88;;;24.20;99.90;;;;;;6226825;28;90098;-71
2023/09/10 10:09:20;;;;;;;9.57;8.55;;;24.20;99.90;;;;;;6232784;28;89133;-70
2023/09/10 10:12:22;;;;;;;8.90;8.10;;;24.20;99.90;;;;;;6233049;28;88977;-71
2023/09/10 10:15:25;;;;;;;9.60;8.63;;;24.20;99.90;;;;;;6232973;28;87962;-70
2023/09/10 10:18:29;;;;;;;9.80;8.80;;;24.20;99.90;;;;;;6232645;28;87926;-70
2023/09/10 10:21:32;;;;;;;11.07;9.10;;;24.20;99.90;;;;;;6232294;28;89126;-71
2023/09/10 10:24:35;;;;;;;9.77;8.88;;;24.20;99.90;;;;;;6231855;28;89069;-71
2023/09/10 10:27:38;;;;;;;9.15;8.35;;;24.20;99.90;;;;;;6233682;28;88374;-71
2023/09/10 10:30:53;;;;;;;8.75;8.05;;;24.30;99.90;;;;;;6232672;28;89080;-70
2023/09/10 10:34:04;;;;;;;8.63;7.90;;;24.20;99.90;;;;;;6232355;28;89160;-72
2023/09/10 10:37:14;;;;;;;9.27;8.38;;;24.20;99.90;;;;;;6231250;28;89979;-71
2023/09/10 10:40:20;;;;;;;9.60;7.95;;;24.20;99.90;;;;;;6230350;28;89027;-71
2023/09/10 10:43:27;;;;;;;8.63;7.93;;;24.20;99.90;;;;;;6231533;28;89291;-71
2023/09/10 10:46:32;;;;;;;8.90;8.10;;;24.20;99.90;;;;;;6222900;28;89346;-71
2023/09/10 10:49:38;;;;;;;8.85;8.00;;;24.20;99.90;;;;;;6215818;28;89113;-72
2023/09/10 10:52:46;;;;;;;9.13;8.23;;;24.20;99.90;;;;;;6231251;28;89326;-71
2023/09/10 10:55:51;;;;;;;9.45;8.55;;;24.30;99.90;;;;;;6231137;28;89092;-71
2023/09/10 10:58:53;;;;;;;8.93;8.10;;;24.30;99.90;;;;;;6225734;28;88525;-72
2023/09/10 11:02:22;;;;;;;8.70;7.90;;;24.30;99.90;;;;;;6232307;28;89428;-71
2023/09/10 11:05:25;;;;;;;9.02;8.05;;;24.30;99.90;;;;;;6231674;28;89080;-71
2023/09/10 11:08:29;;;;;;;8.35;7.65;;;24.30;99.90;;;;;;6229742;28;90275;-71
2023/09/10 11:11:48;;;;;;;8.77;7.97;;;24.30;99.90;;;;;;6231588;28;89015;-72
2023/09/10 11:15:12;;;;;;;8.90;8.07;;;24.30;99.90;;;;;;6220361;28;89104;-72
2023/09/10 11:18:41;;;;;;;8.60;7.88;;;24.30;99.90;;;;;;6231580;28;87960;-72
2023/09/10 11:22:06;;;;;;;9.50;8.60;;;24.30;99.90;;;;;;6230743;28;88291;-73
2023/09/10 11:25:08;;;;;;;9.35;8.43;;;24.30;99.90;;;;;;6230274;28;89172;-72
2023/09/10 11:28:38;;;;;;;8.88;8.05;;;24.30;99.90;;;;;;6231286;28;88936;-72
2023/09/10 11:31:41;;;;;;;8.88;8.18;;;24.30;99.90;;;;;;6231509;28;87319;-72
2023/09/10 11:34:43;;;;;;;8.77;7.97;;;24.30;99.90;;;;;;6230843;28;88968;-72
2023/09/10 11:37:49;;;;;;;8.93;8.13;;;24.30;99.90;;;;;;6229412;28;89086;-72
2023/09/10 11:40:51;;;;;;;8.50;7.75;;;24.30;99.90;;;;;;6230530;28;90300;-72
2023/09/10 11:43:55;;;;;;;9.50;8.10;;;24.30;99.90;;;;;;6229476;28;89049;-72
2023/09/10 11:46:58;;;;;;;9.20;8.30;;;24.30;99.90;;;;;;6231259;28;89284;-71
2023/09/10 11:50:01;;;;;;;9.50;8.50;;;24.30;99.90;;;;;;6218247;28;89157;-72
2023/09/10 11:53:04;;;;;;;10.02;8.68;;;24.30;99.90;;;;;;6230492;28;89060;-72
2023/09/10 11:56:07;;;;;;;10.73;9.63;;;24.30;99.90;;;;;;6229296;28;88942;-72
2023/09/10 11:59:09;;;;;;;10.85;9.13;;;24.30;99.90;;;;;;6230841;28;88985;-72
2023/09/10 12:02:11;;;;;;;10.15;9.15;;;24.30;99.90;;;;;;6231966;28;88342;-72
2023/09/10 12:05:13;;;;;;;10.45;8.63;;;24.30;99.90;;;;;;6230645;28;88995;-73
2023/09/10 12:08:16;;;;;;;9.57;8.60;;;24.30;99.90;;;;;;6228098;28;89248;-73
2023/09/10 12:11:20;;;;;;;9.70;8.80;;;24.30;99.90;;;;;;6232575;28;90006;-73
2023/09/10 12:14:24;;;;;;;13.32;11.93;;;24.30;99.90;;;;;;6234948;28;89101;-72
2023/09/10 12:17:26;;;;;;;12.98;11.63;;;24.30;99.90;;;;;;6232477;28;89153;-72
2023/09/10 12:20:29;;;;;;;12.30;11.10;;;24.40;99.90;;;;;;6233792;28;89381;-75
2023/09/10 12:23:33;;;;;;;12.50;11.15;;;24.30;99.90;;;;;;6233835;28;89153;-72
2023/09/10 12:26:35;;;;;;;12.63;11.35;;;24.40;99.90;;;;;;6233380;28;89100;-72
2023/09/10 12:29:37;;;;;;;12.18;11.07;;;24.40;99.90;;;;;;6234038;28;89326;-71
2023/09/10 12:32:39;;;;;;;12.85;11.32;;;24.40;99.90;;;;;;6234858;28;88307;-72
2023/09/10 12:35:42;;;;;;;11.93;10.82;;;24.40;99.90;;;;;;6233859;28;89058;-71
2023/09/10 12:38:45;;;;;;;13.77;12.48;;;24.40;99.90;;;;;;6220935;28;89027;-71
2023/09/10 12:41:49;;;;;;;13.50;12.30;;;24.50;99.90;;;;;;6233497;28;90027;-71
2023/09/10 12:44:51;;;;;;;12.35;11.25;;;24.50;99.90;;;;;;6233202;28;88998;-72
2023/09/10 12:47:54;;;;;;;12.93;11.57;;;24.60;99.90;;;;;;6233500;28;89094;-73
2023/09/10 12:50:57;;;;;;;12.60;11.30;;;24.60;99.90;;;;;;6233000;28;89083;-73
2023/09/10 12:54:02;;;;;;;12.80;11.50;;;24.50;99.90;;;;;;6232584;28;89412;-73
2023/09/10 12:57:05;;;;;;;11.90;10.80;;;24.50;99.90;;;;;;6232964;28;89027;-73
2023/09/10 13:00:09;;;;;;;12.13;11.02;;;24.50;99.90;;;;;;6233161;28;89455;-72
2023/09/10 13:03:12;;;;;;;12.45;11.25;;;24.50;99.90;;;;;;6233047;28;87275;-71
2023/09/10 13:06:16;;;;;;;11.73;10.63;;;24.50;99.90;;;;;;6232516;28;87853;-71
2023/09/10 13:09:21;;;;;;;13.60;11.32;;;24.50;99.90;;;;;;6231372;28;88031;-72
2023/09/10 13:12:24;;;;;;;11.93;10.73;;;24.50;99.90;;;;;;6231924;28;89390;-72
2023/09/10 13:15:28;;;;;;;11.98;10.77;;;24.50;99.90;;;;;;6232305;28;88105;-71
2023/09/10 13:18:32;;;;;;;13.07;11.65;;;24.50;99.90;;;;;;6232393;28;87002;-72
2023/09/10 13:21:35;;;;;;;14.27;10.25;;;24.50;99.90;;;;;;6231685;28;88059;-72
2023/09/10 13:24:41;;;;;;;14.13;11.52;;;24.50;99.90;;;;;;6232079;28;88292;-72
2023/09/10 13:27:44;;;;;;;12.70;11.40;;;24.50;99.90;;;;;;6231311;28;87894;-72
2023/09/10 13:30:48;;;;;;;12.32;11.02;;;24.50;99.90;;;;;;6233147;28;88307;-71
2023/09/10 13:33:54;;;;;;;12.25;10.95;;;24.50;99.90;;;;;;6231934;28;87320;-72
2023/09/10 13:36:57;;;;;;;12.00;10.80;;;24.50;99.90;;;;;;6232484;28;88061;-72
2023/09/10 13:40:04;;;;;;;12.25;10.98;;;24.50;99.90;;;;;;6231555;28;86990;-71
2023/09/10 13:43:07;;;;;;;12.05;10.85;;;24.50;99.90;;;;;;6231833;28;88959;-72
2023/09/10 13:46:12;;;;;;;11.77;10.63;;;24.50;99.90;;;;;;6230844;28;87627;-72
2023/09/10 13:49:16;;;;;;;11.70;10.50;;;24.50;99.90;;;;;;6232321;28;88178;-72
2023/09/10 13:52:19;;;;;;;11.63;10.43;;;24.50;99.90;;;;;;6231789;28;88200;-72
2023/09/10 13:55:25;;;;;;;11.02;9.95;;;24.50;99.90;;;;;;6232126;28;88583;-72
2023/09/10 13:58:28;;;;;;;12.30;10.23;;;24.50;99.90;;;;;;6233538;28;87523;-72
2023/09/10 14:01:34;;;;;;;12.20;10.60;;;24.50;99.90;;;;;;6231685;28;88004;-72
2023/09/10 14:04:38;;;;;;;11.55;10.35;;;24.50;99.90;;;;;;6232289;28;87289;-73
2023/09/10 14:07:41;;;;;;;11.75;10.38;;;24.50;99.90;;;;;;6231708;28;88030;-73
2023/09/10 14:10:48;;;;;;;11.73;10.48;;;24.50;99.90;;;;;;6231497;28;87944;-73
2023/09/10 14:13:52;;;;;;;11.32;10.13;;;24.50;99.90;;;;;;6226392;28;88942;-73
2023/09/10 14:16:55;;;;;;;11.25;10.05;;;24.50;99.90;;;;;;6223773;28;87986;-73
2023/09/10 14:19:59;;;;;;;11.88;10.27;;;24.50;99.90;;;;;;6231154;28;87888;-73
2023/09/10 14:23:02;;;;;;;11.20;9.88;;;24.50;99.90;;;;;;6231638;28;87967;-72
2023/09/10 14:26:07;;;;;;;10.90;9.77;;;24.40;99.90;;;;;;6232495;28;88962;-73
2023/09/10 14:29:12;;;;;;;11.05;9.73;;;24.50;99.90;;;;;;6219241;28;88018;-72
2023/09/10 14:32:18;;;;;;;10.70;9.60;;;24.50;99.90;;;;;;6235595;28;87153;-73
2023/09/10 14:35:22;;;;;;;11.13;10.02;;;24.50;99.90;;;;;;6244758;27;87024;-71
2023/09/10 14:38:25;;;;;;;11.15;10.05;;;24.50;99.90;;;;;;6230495;28;88152;-73
2023/09/10 14:41:32;;;;;;;11.80;10.10;;;24.50;99.90;;;;;;6233788;28;88012;-73
2023/09/10 14:44:35;;;;;;;10.80;9.70;;;24.50;99.90;;;;;;6231220;28;89005;-73
2023/09/10 14:47:40;;;;;;;11.45;9.52;;;24.50;99.90;;;;;;6224839;28;87896;-73
2023/09/10 14:50:44;;;;;;;10.23;9.23;;;24.50;99.90;;;;;;6229465;28;88200;-73
2023/09/10 14:53:47;;;;;;;10.32;9.27;;;24.50;99.90;;;;;;6234982;28;86956;-73
2023/09/10 14:56:57;;;;;;;12.00;9.75;;;24.50;99.90;;;;;;6229136;28;87970;-73
2023/09/10 15:00:00;;;;;;;10.32;9.18;;;24.50;99.90;;;;;;6231418;28;87145;-73
2023/09/10 15:03:04;;;;;;;9.88;8.93;;;24.50;99.90;;;;;;6233051;28;88348;-73
2023/09/10 15:06:08;;;;;;;10.10;9.20;;;24.50;99.90;;;;;;6231649;28;87264;-73
2023/09/10 15:09:12;;;;;;;10.18;9.18;;;24.50;99.90;;;;;;6229724;28;88021;-73
2023/09/10 15:12:17;;;;;;;10.60;9.50;;;24.50;99.90;;;;;;6230832;28;88017;-72
2023/09/10 15:15:22;;;;;;;10.73;9.30;;;24.50;99.90;;;;;;6222762;28;88556;-73
2023/09/10 15:18:26;;;;;;;10.02;9.00;;;24.50;99.90;;;;;;6230637;28;89003;-72
2023/09/10 15:21:29;;;;;;;10.23;9.13;;;24.50;99.90;;;;;;6229816;28;88041;-73
2023/09/10 15:24:32;;;;;;;10.10;9.05;;;24.50;99.90;;;;;;6231871;28;88280;-71
2023/09/10 15:27:38;;;;;;;9.90;9.00;;;24.50;99.90;;;;;;6230282;28;87992;-73
2023/09/10 15:30:41;;;;;;;10.07;8.70;;;24.50;99.90;;;;;;6228672;28;88219;-72
2023/09/10 15:33:45;;;;;;;9.75;8.85;;;24.50;99.90;;;;;;6228652;28;88541;-73
2023/09/10 15:36:49;;;;;;;9.38;8.30;;;24.50;99.90;;;;;;6230655;28;86441;-72
2023/09/10 15:39:52;;;;;;;9.35;8.45;;;24.50;99.90;;;;;;6230325;28;87987;-72
2023/09/10 15:43:00;;;;;;;8.90;8.00;;;24.50;99.90;;;;;;6229952;28;88003;-74
2023/09/10 15:46:04;;;;;;;9.82;8.82;;;24.50;99.90;;;;;;6229433;28;89750;-73
2023/09/10 15:49:07;;;;;;;9.23;8.32;;;24.50;99.90;;;;;;6231870;28;88349;-73
2023/09/10 15:52:11;;;;;;;9.35;8.30;;;24.50;99.90;;;;;;6229025;28;88542;-73